G. M. Dannevig — LINW — position and weather

sailwx.info

Track history (hours):
 
Tides and Currents Weather Stations Pressure Air Temp Water Temp Dewpoint Dewpoint Depression Visibility Wind Speed Wind Dir Waves Ship Positions

Oceanographic research ship G. M. Dannevig (Norway)

Detailed information on ship capabilities available from University of Delaware's Ocean Information Center.

Last reported at 2017-Nov-20 00:30 UTC. Time now 2017-Nov-21 00:39 UTC.
Position N 59°26' E 010°39'.

Length 27 m; draft 0.35 m.

Type: Dredging. MMSI: 258513000.

Date/timePositionNaut miles runAvg speedWind from/ knotsBaromVisibWave heightAir tempDewpointWater temp
2017-Nov-20 00:30N 59°26' E 010°39'0 0.0
2017-Nov-20 00:00N 59°26' E 010°39'0 0.0
2017-Nov-19 23:30N 59°26' E 010°39'0 0.0
2017-Nov-19 23:00N 59°26' E 010°39'0 0.0
2017-Nov-19 22:30N 59°26' E 010°39'0 0.0
2017-Nov-19 22:00N 59°26' E 010°39'0 0.0
2017-Nov-19 21:30N 59°26' E 010°39'0 0.0
2017-Nov-19 21:00N 59°26' E 010°39'0 0.0
2017-Nov-19 20:30N 59°26' E 010°39'0 0.0
2017-Nov-19 20:00N 59°26' E 010°39'0 0.0
2017-Nov-19 19:30N 59°26' E 010°39'0 0.0
2017-Nov-19 19:00N 59°26' E 010°39'0 0.0
2017-Nov-19 18:30N 59°26' E 010°39'0 0.0
2017-Nov-19 18:00N 59°26' E 010°39'2 3.0
2017-Nov-19 17:30N 59°28' E 010°40'3 6.1
2017-Nov-19 17:00N 59°31' E 010°40'3 5.2
2017-Nov-19 16:30N 59°33' E 010°39'2 4.6
2017-Nov-19 16:01N 59°35' E 010°38'4 8.4
2017-Nov-19 15:30N 59°31' E 010°38'5 9.2
2017-Nov-19 15:00N 59°27' E 010°35'4 8.7
2017-Nov-19 14:30N 59°22' E 010°36'1 1.6
2017-Nov-19 14:00N 59°22' E 010°37'5 9.1
2017-Nov-19 13:30N 59°18' E 010°41'3 6.7
2017-Nov-19 13:00N 59°15' E 010°43'3 5.9
2017-Nov-19 12:30N 59°12' E 010°44'5 9.1
2017-Nov-19 12:00N 59°08' E 010°50'3 6.7
2017-Nov-19 11:30N 59°08' E 010°56'3 6.8
2017-Nov-19 11:00N 59°07' E 011°03'4 8.5
2017-Nov-19 10:30N 59°05' E 011°10'4 7.7
2017-Nov-19 10:00N 59°06' E 011°17'3 6.1
2017-Nov-19 09:30N 59°05' E 011°23'2 4.8
2017-Nov-19 09:00N 59°07' E 011°20'4 8.5
2017-Nov-19 08:30N 59°05' E 011°12'2 3.8
2017-Nov-19 08:00N 59°06' E 011°09'4 7.6
2017-Nov-19 07:30N 59°06' E 011°02'3 6.0
2017-Nov-19 07:00N 59°04' E 010°58'1 1.1
2017-Nov-19 06:30N 59°04' E 010°58'0 0.0
2017-Nov-19 06:00N 59°04' E 010°58'0 0.0
2017-Nov-19 05:30N 59°04' E 010°58'0 0.0
2017-Nov-19 05:00N 59°04' E 010°58'0 0.0
2017-Nov-19 04:30N 59°04' E 010°58'0 0.0
2017-Nov-19 04:00N 59°04' E 010°58'0 0.0
2017-Nov-19 03:30N 59°04' E 010°58'0 0.0
2017-Nov-19 03:00N 59°04' E 010°58'0 0.0
2017-Nov-19 02:30N 59°04' E 010°58'0 0.0
2017-Nov-19 02:00N 59°04' E 010°58'0 0.0
2017-Nov-19 01:30N 59°04' E 010°58'0 0.0
2017-Nov-19 01:00N 59°04' E 010°58'0 0.0
2017-Nov-19 00:30N 59°04' E 010°58'0 0.0
2017-Nov-19 00:00N 59°04' E 010°58'0 0.0
2017-Nov-18 23:30N 59°04' E 010°58'0 0.0
2017-Nov-18 23:00N 59°04' E 010°58'0 0.0
2017-Nov-18 22:30N 59°04' E 010°58'0 0.0
2017-Nov-18 22:00N 59°04' E 010°58'0 0.0
2017-Nov-18 21:30N 59°04' E 010°58'0 0.0
2017-Nov-18 21:00N 59°04' E 010°58'0 0.0
2017-Nov-18 20:30N 59°04' E 010°58'0 0.0
2017-Nov-18 20:00N 59°04' E 010°58'2 4.7
2017-Nov-18 19:31N 59°01' E 010°56'4 8.4
2017-Nov-18 19:00N 59°02' E 010°48'4 8.6
2017-Nov-18 18:30N 59°03' E 010°40'4 8.9
2017-Nov-18 18:00N 59°02' E 010°31'4 9.0
2017-Nov-18 17:30N 59°01' E 010°23'4 7.8
2017-Nov-18 17:00N 59°02' E 010°15'1 2.9
2017-Nov-18 16:30N 59°03' E 010°15'1 1.5
2017-Nov-18 16:00N 59°04' E 010°15'4 8.7
2017-Nov-18 15:30N 59°00' E 010°12'4 8.4
2017-Nov-18 15:00N 59°01' E 010°04'2 5.0
2017-Nov-18 14:30N 58°58' E 010°04'4 7.4
2017-Nov-18 14:00N 58°57' E 009°56'6 7.7
2017-Nov-18 13:10N 59°01' E 009°46'2 7.5
2017-Nov-18 12:57N 59°02' E 009°44'2 2.1
2017-Nov-18 11:48N 59°03' E 009°40'6 3.9
2017-Nov-18 10:14N 58°60' E 009°50'48 1.9
2017-Nov-17 09:34N 58°25' E 008°45'1 8.8
2017-Nov-17 09:30N 58°25' E 008°46'0 0.7
2017-Nov-17 09:00N 58°25' E 008°45'0 0.5
2017-Nov-17 08:29N 58°25' E 008°45'2 3.3
2017-Nov-17 08:00N 58°24' E 008°46'2 0.1
2017-Nov-16 09:05N 58°26' E 008°45'0 0.0
2017-Nov-16 09:00N 58°26' E 008°45'0 0.0
2017-Nov-16 08:30N 58°26' E 008°45'0 0.0
2017-Nov-16 08:01N 58°26' E 008°45'0 0.0
2017-Nov-16 07:30N 58°26' E 008°45'0 0.0
2017-Nov-16 07:00N 58°26' E 008°45'0 0.0
2017-Nov-16 06:30N 58°26' E 008°45'0 0.0
2017-Nov-16 06:00N 58°26' E 008°45'0 0.0
2017-Nov-16 05:30N 58°26' E 008°45'0 0.0
2017-Nov-16 05:01N 58°26' E 008°45'0 0.0
2017-Nov-16 04:30N 58°26' E 008°45'0 0.0
2017-Nov-16 04:00N 58°26' E 008°45'0 0.0
2017-Nov-16 03:30N 58°26' E 008°45'0 0.0
2017-Nov-16 03:00N 58°26' E 008°45'0 0.0
2017-Nov-16 02:30N 58°26' E 008°45'0 0.0
2017-Nov-16 02:00N 58°26' E 008°45'0 0.0
2017-Nov-16 01:30N 58°26' E 008°45'0 0.0
2017-Nov-16 01:00N 58°26' E 008°45'0 0.0
2017-Nov-16 00:30N 58°26' E 008°45'0 0.0
2017-Nov-16 00:00N 58°26' E 008°45'0 0.0
2017-Nov-15 23:30N 58°26' E 008°45'0 0.0
2017-Nov-15 23:00N 58°26' E 008°45'0 0.0
2017-Nov-15 22:30N 58°26' E 008°45'0 0.0
2017-Nov-15 22:00N 58°26' E 008°45'0 0.0
2017-Nov-15 21:30N 58°26' E 008°45'0 0.0
2017-Nov-15 21:00N 58°26' E 008°45'0 0.0
2017-Nov-15 20:30N 58°26' E 008°45'0 0.0
2017-Nov-15 20:00N 58°26' E 008°45'0 0.0
2017-Nov-15 19:30N 58°26' E 008°45'0 0.0
2017-Nov-15 19:00N 58°26' E 008°45'0 0.0
2017-Nov-15 18:30N 58°26' E 008°45'0 0.0
2017-Nov-15 18:00N 58°26' E 008°45'0 0.0
2017-Nov-15 17:30N 58°26' E 008°45'0 0.0
2017-Nov-15 17:00N 58°26' E 008°45'0 0.0
2017-Nov-15 16:30N 58°26' E 008°45'0 0.0
2017-Nov-15 16:00N 58°26' E 008°45'0 0.0
2017-Nov-15 15:31N 58°26' E 008°45'0 0.0
2017-Nov-15 15:00N 58°26' E 008°45'0 0.0
2017-Nov-15 14:31N 58°26' E 008°45'0 0.0
2017-Nov-15 13:59N 58°26' E 008°45'0 0.0
2017-Nov-15 13:30N 58°26' E 008°45'0 0.0
2017-Nov-15 13:00N 58°26' E 008°45'0 0.0
2017-Nov-15 12:30N 58°26' E 008°45'0 0.0
2017-Nov-15 12:00N 58°26' E 008°45'0 0.0
2017-Nov-15 11:30N 58°26' E 008°45'0 0.0
2017-Nov-15 11:00N 58°26' E 008°45'0 0.0
2017-Nov-15 10:30N 58°26' E 008°45'0 0.0
2017-Nov-15 10:00N 58°26' E 008°45'0 0.0
2017-Nov-15 09:31N 58°26' E 008°45'0 0.0
2017-Nov-15 09:00N 58°26' E 008°45'0 0.0
2017-Nov-15 08:30N 58°26' E 008°45'0 0.0
2017-Nov-15 08:00N 58°26' E 008°45'0 0.0
2017-Nov-15 07:30N 58°26' E 008°45'0 0.0
2017-Nov-15 07:00N 58°26' E 008°45'0 0.0
2017-Nov-15 06:29N 58°26' E 008°45'0 0.0
2017-Nov-15 06:00N 58°26' E 008°45'0 0.0
2017-Nov-15 05:30N 58°26' E 008°45'0 0.0
2017-Nov-15 05:00N 58°26' E 008°45'0 0.0
2017-Nov-15 04:30N 58°26' E 008°45'0 0.0
2017-Nov-15 04:00N 58°26' E 008°45'0 0.0
2017-Nov-15 03:30N 58°26' E 008°45'0 0.0
2017-Nov-15 03:00N 58°26' E 008°45'0 0.0
2017-Nov-15 02:31N 58°26' E 008°45'0 0.0
2017-Nov-15 02:00N 58°26' E 008°45'0 0.0
2017-Nov-15 01:30N 58°26' E 008°45'0 0.0
2017-Nov-15 01:00N 58°26' E 008°45'0 0.0
2017-Nov-15 00:29N 58°26' E 008°45'0 0.0
2017-Nov-15 00:00N 58°26' E 008°45'0 0.0
2017-Nov-14 23:31N 58°26' E 008°45'0 0.0
2017-Nov-14 22:59N 58°26' E 008°45'0 0.0
2017-Nov-14 22:30N 58°26' E 008°45'0 0.0
2017-Nov-14 22:00N 58°26' E 008°45'0 0.0
2017-Nov-14 21:30N 58°26' E 008°45'0 0.0
2017-Nov-14 21:00N 58°26' E 008°45'0 0.0
2017-Nov-14 20:30N 58°26' E 008°45'0 0.0
2017-Nov-14 20:00N 58°26' E 008°45'0 0.0
2017-Nov-14 19:30N 58°26' E 008°45'0 0.0
2017-Nov-14 19:00N 58°26' E 008°45'0 0.0
2017-Nov-14 18:30N 58°26' E 008°45'0 0.0
2017-Nov-14 18:00N 58°26' E 008°45'0 0.0
2017-Nov-14 17:30N 58°26' E 008°45'0 0.0
2017-Nov-14 17:00N 58°26' E 008°45'0 0.0
2017-Nov-14 16:30N 58°26' E 008°45'0 0.0
2017-Nov-14 16:00N 58°26' E 008°45'0 0.0
2017-Nov-14 15:30N 58°26' E 008°45'0 0.0
2017-Nov-14 15:00N 58°26' E 008°45'0 0.0
2017-Nov-14 14:30N 58°26' E 008°45'0 0.0
2017-Nov-14 13:59N 58°26' E 008°45'0 0.0
2017-Nov-14 13:30N 58°26' E 008°45'0 0.0
2017-Nov-14 13:00N 58°26' E 008°45'0 0.0
2017-Nov-14 12:30N 58°26' E 008°45'0 0.0
2017-Nov-14 12:00N 58°26' E 008°45'0 0.0
2017-Nov-14 11:30N 58°26' E 008°45'0 0.0
2017-Nov-14 11:01N 58°26' E 008°45'0 0.0
2017-Nov-14 10:30N 58°26' E 008°45'0 0.0
2017-Nov-14 10:00N 58°26' E 008°45'0 0.0
2017-Nov-14 09:31N 58°26' E 008°45'0 0.0
2017-Nov-14 09:00N 58°26' E 008°45'0 0.0
2017-Nov-14 08:30N 58°26' E 008°45'0 0.0
2017-Nov-14 08:00N 58°26' E 008°45'0 0.0
2017-Nov-14 07:30N 58°26' E 008°45'0 0.0
2017-Nov-14 07:00N 58°26' E 008°45'0 0.0
2017-Nov-14 06:30N 58°26' E 008°45'0 0.0
2017-Nov-14 06:00N 58°26' E 008°45'0 0.0
2017-Nov-14 05:30N 58°26' E 008°45'0 0.0
2017-Nov-14 05:00N 58°26' E 008°45'0 0.0
2017-Nov-14 04:30N 58°26' E 008°45'0 0.0
2017-Nov-14 04:00N 58°26' E 008°45'0 0.0
2017-Nov-14 03:30N 58°26' E 008°45'0 0.0
2017-Nov-14 03:00N 58°26' E 008°45'0 0.0
2017-Nov-14 02:30N 58°26' E 008°45'0 0.0
2017-Nov-14 02:00N 58°26' E 008°45'0 0.0
2017-Nov-14 01:30N 58°26' E 008°45'0 0.0
2017-Nov-14 01:00N 58°26' E 008°45'0 0.0
2017-Nov-14 00:30N 58°26' E 008°45'0 0.0
2017-Nov-14 00:00N 58°26' E 008°45'0 0.0
2017-Nov-13 23:30N 58°26' E 008°45'0 0.0
2017-Nov-13 23:00N 58°26' E 008°45'0 0.0
2017-Nov-13 22:30N 58°26' E 008°45'0 0.0
2017-Nov-13 22:00N 58°26' E 008°45'0 0.0
2017-Nov-13 02:00N 58°26' E 008°45'0 0.0
2017-Nov-13 01:30N 58°26' E 008°45'0 0.0
2017-Nov-13 01:00N 58°26' E 008°45'0 0.0
2017-Nov-13 00:30N 58°26' E 008°45'0 0.0
2017-Nov-13 00:00N 58°26' E 008°45'0 0.0
2017-Nov-12 23:30N 58°26' E 008°45'0 0.0
2017-Nov-12 23:00N 58°26' E 008°45'0 0.0
2017-Nov-12 22:30N 58°26' E 008°45'0 0.0
2017-Nov-12 22:00N 58°26' E 008°45'0 0.0
2017-Nov-12 21:30N 58°26' E 008°45'0 0.0
2017-Nov-12 21:00N 58°26' E 008°45'0 0.0
2017-Nov-12 20:30N 58°26' E 008°45'0 0.0
2017-Nov-12 20:01N 58°26' E 008°45'0 0.0
2017-Nov-12 19:30N 58°26' E 008°45'0 0.0
2017-Nov-12 19:00N 58°26' E 008°45'0 0.0
2017-Nov-12 18:29N 58°26' E 008°45'0 0.0
2017-Nov-12 18:00N 58°26' E 008°45'0 0.0
2017-Nov-12 17:30N 58°26' E 008°45'0 0.0
2017-Nov-12 17:00N 58°26' E 008°45'0 0.0
2017-Nov-12 16:30N 58°26' E 008°45'0 0.0
2017-Nov-12 16:00N 58°26' E 008°45'0 0.0
2017-Nov-12 15:30N 58°26' E 008°45'0 0.0
2017-Nov-12 15:00N 58°26' E 008°45'0 0.0
2017-Nov-12 14:30N 58°26' E 008°45'0 0.0
2017-Nov-12 14:00N 58°26' E 008°45'0 0.0
2017-Nov-12 13:30N 58°26' E 008°45'0 0.0
2017-Nov-12 13:00N 58°26' E 008°45'0 0.0
2017-Nov-12 12:31N 58°26' E 008°45'0 0.0
2017-Nov-12 12:00N 58°26' E 008°45'0 0.0
2017-Nov-12 11:30N 58°26' E 008°45'0 0.0
2017-Nov-12 11:00N 58°26' E 008°45'0 0.0
2017-Nov-12 10:31N 58°26' E 008°45'0 0.0
2017-Nov-12 09:59N 58°26' E 008°45'0 0.0
2017-Nov-12 09:30N 58°26' E 008°45'0 0.0
2017-Nov-12 09:00N 58°26' E 008°45'0 0.0
2017-Nov-12 08:30N 58°26' E 008°45'0 0.0
2017-Nov-12 07:59N 58°26' E 008°45'0 0.0
2017-Nov-12 07:30N 58°26' E 008°45'0 0.0
2017-Nov-12 07:00N 58°26' E 008°45'0 0.0
2017-Nov-12 06:30N 58°26' E 008°45'0 0.0
2017-Nov-12 06:00N 58°26' E 008°45'0 0.0
2017-Nov-12 05:30N 58°26' E 008°45'0 0.0
2017-Nov-12 05:00N 58°26' E 008°45'0 0.0
2017-Nov-12 04:30N 58°26' E 008°45'0 0.0
2017-Nov-12 04:00N 58°26' E 008°45'0 0.0
2017-Nov-12 03:30N 58°26' E 008°45'0 0.0
2017-Nov-12 03:00N 58°26' E 008°45'0 0.0
2017-Nov-12 02:30N 58°26' E 008°45'0 0.0
2017-Nov-12 02:01N 58°26' E 008°45'0 0.0
2017-Nov-12 01:30N 58°26' E 008°45'0 0.0
2017-Nov-12 01:00N 58°26' E 008°45'0 0.0
2017-Nov-12 00:30N 58°26' E 008°45'0 0.0
2017-Nov-12 00:00N 58°26' E 008°45'0 0.0
2017-Nov-11 23:30N 58°26' E 008°45'0 0.0
2017-Nov-11 23:00N 58°26' E 008°45'0 0.0
2017-Nov-11 22:30N 58°26' E 008°45'0 0.0
2017-Nov-11 22:00N 58°26' E 008°45'0 0.0
2017-Nov-11 21:30N 58°26' E 008°45'0 0.0
2017-Nov-11 21:00N 58°26' E 008°45'0 0.0
2017-Nov-11 20:30N 58°26' E 008°45'0 0.0
2017-Nov-11 20:00N 58°26' E 008°45'0 0.0
2017-Nov-11 19:30N 58°26' E 008°45'0 0.0
2017-Nov-11 19:00N 58°26' E 008°45'0 0.0
2017-Nov-11 18:30N 58°26' E 008°45'0 0.0
2017-Nov-11 18:00N 58°26' E 008°45'0 0.0
2017-Nov-11 17:30N 58°26' E 008°45'0 0.0
2017-Nov-11 17:00N 58°26' E 008°45'0 0.0
2017-Nov-11 16:30N 58°26' E 008°45'0 0.0
2017-Nov-11 16:00N 58°26' E 008°45'0 0.0
2017-Nov-11 15:30N 58°26' E 008°45'0 0.0
2017-Nov-11 15:00N 58°26' E 008°45'0 0.0
2017-Nov-11 14:30N 58°26' E 008°45'0 0.0
2017-Nov-11 14:00N 58°26' E 008°45'0 0.0
2017-Nov-11 13:30N 58°26' E 008°45'0 0.0
2017-Nov-11 13:00N 58°26' E 008°45'0 0.0
2017-Nov-11 12:31N 58°26' E 008°45'0 0.0
2017-Nov-11 12:00N 58°26' E 008°45'0 0.0
2017-Nov-11 11:30N 58°26' E 008°45'0 0.0
2017-Nov-11 10:59N 58°26' E 008°45'0 0.0
2017-Nov-11 10:30N 58°26' E 008°45'0 0.0
2017-Nov-11 10:00N 58°26' E 008°45'0 0.0
2017-Nov-11 09:30N 58°26' E 008°45'0 0.0
2017-Nov-11 09:00N 58°26' E 008°45'0 0.0
2017-Nov-11 08:29N 58°26' E 008°45'0 0.0
2017-Nov-11 08:00N 58°26' E 008°45'0 0.0
2017-Nov-11 07:30N 58°26' E 008°45'0 0.0
2017-Nov-11 07:01N 58°26' E 008°45'0 0.0
2017-Nov-11 06:30N 58°26' E 008°45'0 0.0
2017-Nov-11 06:00N 58°26' E 008°45'0 0.0
2017-Nov-11 05:30N 58°26' E 008°45'0 0.0
2017-Nov-11 05:00N 58°26' E 008°45'0 0.0
2017-Nov-11 04:30N 58°26' E 008°45'0 0.0
2017-Nov-11 04:00N 58°26' E 008°45'0 0.0
2017-Nov-11 03:30N 58°26' E 008°45'0 0.0
2017-Nov-11 03:00N 58°26' E 008°45'0 0.0
2017-Nov-11 02:30N 58°26' E 008°45'0 0.0
2017-Nov-11 02:00N 58°26' E 008°45'0 0.0
2017-Nov-11 01:30N 58°26' E 008°45'0 0.0
2017-Nov-11 01:00N 58°26' E 008°45'0 0.0
2017-Nov-11 00:30N 58°26' E 008°45'0 0.0
2017-Nov-11 00:00N 58°26' E 008°45'0 0.0
2017-Nov-10 23:31N 58°26' E 008°45'0 0.0
2017-Nov-10 23:00N 58°26' E 008°45'0 0.0
2017-Nov-10 22:30N 58°26' E 008°45'0 0.0
2017-Nov-10 22:01N 58°26' E 008°45'0 0.0
2017-Nov-10 21:31N 58°26' E 008°45'0 0.0
2017-Nov-10 21:00N 58°26' E 008°45'0 0.0
2017-Nov-10 20:30N 58°26' E 008°45'0 0.0
2017-Nov-10 20:00N 58°26' E 008°45'0 0.0
2017-Nov-10 19:30N 58°26' E 008°45'0 0.0
2017-Nov-10 19:00N 58°26' E 008°45'0 0.0
2017-Nov-10 18:30N 58°26' E 008°45'0 0.0
2017-Nov-10 18:00N 58°26' E 008°45'0 0.0
2017-Nov-10 17:30N 58°26' E 008°45'0 0.0
2017-Nov-10 17:00N 58°26' E 008°45'0 0.0
2017-Nov-10 16:30N 58°26' E 008°45'0 0.0
2017-Nov-10 16:00N 58°26' E 008°45'0 0.0
2017-Nov-10 15:30N 58°26' E 008°45'0 0.0
2017-Nov-10 15:00N 58°26' E 008°45'0 0.0
2017-Nov-10 14:30N 58°26' E 008°45'0 0.0
2017-Nov-10 14:00N 58°26' E 008°45'0 0.0
2017-Nov-10 13:30N 58°26' E 008°45'0 0.0
2017-Nov-10 13:00N 58°26' E 008°45'0 0.0
2017-Nov-10 12:30N 58°26' E 008°45'0 0.0
2017-Nov-10 12:00N 58°26' E 008°45'0 0.0
2017-Nov-10 11:30N 58°26' E 008°45'0 0.0
2017-Nov-10 11:00N 58°26' E 008°45'0 0.0
2017-Nov-10 10:30N 58°26' E 008°45'0 0.0
2017-Nov-10 10:00N 58°26' E 008°45'0 0.0
2017-Nov-10 09:30N 58°26' E 008°45'0 0.0
2017-Nov-10 09:00N 58°26' E 008°45'0 0.0
2017-Nov-10 08:30N 58°26' E 008°45'0 0.0
2017-Nov-10 08:00N 58°26' E 008°45'0 0.0
2017-Nov-10 07:30N 58°26' E 008°45'0 0.0
2017-Nov-10 07:00N 58°26' E 008°45'0 0.0
2017-Nov-10 06:30N 58°26' E 008°45'0 0.0
2017-Nov-10 06:00N 58°26' E 008°45'0 0.0
2017-Nov-10 05:30N 58°26' E 008°45'0 0.0
2017-Nov-10 05:00N 58°26' E 008°45'0 0.0
2017-Nov-10 04:30N 58°26' E 008°45'0 0.0
2017-Nov-10 04:00N 58°26' E 008°45'0 0.0
2017-Nov-10 03:30N 58°26' E 008°45'0 0.0
2017-Nov-10 03:00N 58°26' E 008°45'0 0.0
2017-Nov-10 02:30N 58°26' E 008°45'0 0.0
2017-Nov-10 01:59N 58°26' E 008°45'0 0.0
2017-Nov-10 01:30N 58°26' E 008°45'0 0.0
2017-Nov-10 01:00N 58°26' E 008°45'  
Track history (hours):
 
Tides and Currents Weather Stations Pressure Air Temp Water Temp Dewpoint Dewpoint Depression Visibility Wind Speed Wind Dir Waves Ship Positions

Oceanographic research ship G. M. Dannevig (Norway)

Detailed information on ship capabilities available from University of Delaware's Ocean Information Center.

Last reported at 2017-Nov-20 00:30 UTC. Time now 2017-Nov-21 00:39 UTC.
Position N 59°26' E 010°39'.

Length 27 m; draft 0.35 m.

Type: Dredging. MMSI: 258513000.

Date/timePositionNaut miles runAvg speedWind from/ knotsBaromVisibWave heightAir tempDewpointWater temp
2017-Nov-20 00:30N 59°26' E 010°39'0 0.0
2017-Nov-20 00:00N 59°26' E 010°39'0 0.0
2017-Nov-19 23:30N 59°26' E 010°39'0 0.0
2017-Nov-19 23:00N 59°26' E 010°39'0 0.0
2017-Nov-19 22:30N 59°26' E 010°39'0 0.0
2017-Nov-19 22:00N 59°26' E 010°39'0 0.0
2017-Nov-19 21:30N 59°26' E 010°39'0 0.0
2017-Nov-19 21:00N 59°26' E 010°39'0 0.0
2017-Nov-19 20:30N 59°26' E 010°39'0 0.0
2017-Nov-19 20:00N 59°26' E 010°39'0 0.0
2017-Nov-19 19:30N 59°26' E 010°39'0 0.0
2017-Nov-19 19:00N 59°26' E 010°39'0 0.0
2017-Nov-19 18:30N 59°26' E 010°39'0 0.0
2017-Nov-19 18:00N 59°26' E 010°39'2 3.0
2017-Nov-19 17:30N 59°28' E 010°40'3 6.1
2017-Nov-19 17:00N 59°31' E 010°40'3 5.2
2017-Nov-19 16:30N 59°33' E 010°39'2 4.6
2017-Nov-19 16:01N 59°35' E 010°38'4 8.4
2017-Nov-19 15:30N 59°31' E 010°38'5 9.2
2017-Nov-19 15:00N 59°27' E 010°35'4 8.7
2017-Nov-19 14:30N 59°22' E 010°36'1 1.6
2017-Nov-19 14:00N 59°22' E 010°37'5 9.1
2017-Nov-19 13:30N 59°18' E 010°41'3 6.7
2017-Nov-19 13:00N 59°15' E 010°43'3 5.9
2017-Nov-19 12:30N 59°12' E 010°44'5 9.1
2017-Nov-19 12:00N 59°08' E 010°50'3 6.7
2017-Nov-19 11:30N 59°08' E 010°56'3 6.8
2017-Nov-19 11:00N 59°07' E 011°03'4 8.5
2017-Nov-19 10:30N 59°05' E 011°10'4 7.7
2017-Nov-19 10:00N 59°06' E 011°17'3 6.1
2017-Nov-19 09:30N 59°05' E 011°23'2 4.8
2017-Nov-19 09:00N 59°07' E 011°20'4 8.5
2017-Nov-19 08:30N 59°05' E 011°12'2 3.8
2017-Nov-19 08:00N 59°06' E 011°09'4 7.6
2017-Nov-19 07:30N 59°06' E 011°02'3 6.0
2017-Nov-19 07:00N 59°04' E 010°58'1 1.1
2017-Nov-19 06:30N 59°04' E 010°58'0 0.0
2017-Nov-19 06:00N 59°04' E 010°58'0 0.0
2017-Nov-19 05:30N 59°04' E 010°58'0 0.0
2017-Nov-19 05:00N 59°04' E 010°58'0 0.0
2017-Nov-19 04:30N 59°04' E 010°58'0 0.0
2017-Nov-19 04:00N 59°04' E 010°58'0 0.0
2017-Nov-19 03:30N 59°04' E 010°58'0 0.0
2017-Nov-19 03:00N 59°04' E 010°58'0 0.0
2017-Nov-19 02:30N 59°04' E 010°58'0 0.0
2017-Nov-19 02:00N 59°04' E 010°58'0 0.0
2017-Nov-19 01:30N 59°04' E 010°58'0 0.0
2017-Nov-19 01:00N 59°04' E 010°58'0 0.0
2017-Nov-19 00:30N 59°04' E 010°58'0 0.0
2017-Nov-19 00:00N 59°04' E 010°58'0 0.0
2017-Nov-18 23:30N 59°04' E 010°58'0 0.0
2017-Nov-18 23:00N 59°04' E 010°58'0 0.0
2017-Nov-18 22:30N 59°04' E 010°58'0 0.0
2017-Nov-18 22:00N 59°04' E 010°58'0 0.0
2017-Nov-18 21:30N 59°04' E 010°58'0 0.0
2017-Nov-18 21:00N 59°04' E 010°58'0 0.0
2017-Nov-18 20:30N 59°04' E 010°58'0 0.0
2017-Nov-18 20:00N 59°04' E 010°58'2 4.7
2017-Nov-18 19:31N 59°01' E 010°56'4 8.4
2017-Nov-18 19:00N 59°02' E 010°48'4 8.6
2017-Nov-18 18:30N 59°03' E 010°40'4 8.9
2017-Nov-18 18:00N 59°02' E 010°31'4 9.0
2017-Nov-18 17:30N 59°01' E 010°23'4 7.8
2017-Nov-18 17:00N 59°02' E 010°15'1 2.9
2017-Nov-18 16:30N 59°03' E 010°15'1 1.5
2017-Nov-18 16:00N 59°04' E 010°15'4 8.7
2017-Nov-18 15:30N 59°00' E 010°12'4 8.4
2017-Nov-18 15:00N 59°01' E 010°04'2 5.0
2017-Nov-18 14:30N 58°58' E 010°04'4 7.4
2017-Nov-18 14:00N 58°57' E 009°56'6 7.7
2017-Nov-18 13:10N 59°01' E 009°46'2 7.5
2017-Nov-18 12:57N 59°02' E 009°44'2 2.1
2017-Nov-18 11:48N 59°03' E 009°40'6 3.9
2017-Nov-18 10:14N 58°60' E 009°50'48 1.9
2017-Nov-17 09:34N 58°25' E 008°45'1 8.8
2017-Nov-17 09:30N 58°25' E 008°46'0 0.7
2017-Nov-17 09:00N 58°25' E 008°45'0 0.5
2017-Nov-17 08:29N 58°25' E 008°45'2 3.3
2017-Nov-17 08:00N 58°24' E 008°46'2 0.1
2017-Nov-16 09:05N 58°26' E 008°45'0 0.0
2017-Nov-16 09:00N 58°26' E 008°45'0 0.0
2017-Nov-16 08:30N 58°26' E 008°45'0 0.0
2017-Nov-16 08:01N 58°26' E 008°45'0 0.0
2017-Nov-16 07:30N 58°26' E 008°45'0 0.0
2017-Nov-16 07:00N 58°26' E 008°45'0 0.0
2017-Nov-16 06:30N 58°26' E 008°45'0 0.0
2017-Nov-16 06:00N 58°26' E 008°45'0 0.0
2017-Nov-16 05:30N 58°26' E 008°45'0 0.0
2017-Nov-16 05:01N 58°26' E 008°45'0 0.0
2017-Nov-16 04:30N 58°26' E 008°45'0 0.0
2017-Nov-16 04:00N 58°26' E 008°45'0 0.0
2017-Nov-16 03:30N 58°26' E 008°45'0 0.0
2017-Nov-16 03:00N 58°26' E 008°45'0 0.0
2017-Nov-16 02:30N 58°26' E 008°45'0 0.0
2017-Nov-16 02:00N 58°26' E 008°45'0 0.0
2017-Nov-16 01:30N 58°26' E 008°45'0 0.0
2017-Nov-16 01:00N 58°26' E 008°45'0 0.0
2017-Nov-16 00:30N 58°26' E 008°45'0 0.0
2017-Nov-16 00:00N 58°26' E 008°45'0 0.0
2017-Nov-15 23:30N 58°26' E 008°45'0 0.0
2017-Nov-15 23:00N 58°26' E 008°45'0 0.0
2017-Nov-15 22:30N 58°26' E 008°45'0 0.0
2017-Nov-15 22:00N 58°26' E 008°45'0 0.0
2017-Nov-15 21:30N 58°26' E 008°45'0 0.0
2017-Nov-15 21:00N 58°26' E 008°45'0 0.0
2017-Nov-15 20:30N 58°26' E 008°45'0 0.0
2017-Nov-15 20:00N 58°26' E 008°45'0 0.0
2017-Nov-15 19:30N 58°26' E 008°45'0 0.0
2017-Nov-15 19:00N 58°26' E 008°45'0 0.0
2017-Nov-15 18:30N 58°26' E 008°45'0 0.0
2017-Nov-15 18:00N 58°26' E 008°45'0 0.0
2017-Nov-15 17:30N 58°26' E 008°45'0 0.0
2017-Nov-15 17:00N 58°26' E 008°45'0 0.0
2017-Nov-15 16:30N 58°26' E 008°45'0 0.0
2017-Nov-15 16:00N 58°26' E 008°45'0 0.0
2017-Nov-15 15:31N 58°26' E 008°45'0 0.0
2017-Nov-15 15:00N 58°26' E 008°45'0 0.0
2017-Nov-15 14:31N 58°26' E 008°45'0 0.0
2017-Nov-15 13:59N 58°26' E 008°45'0 0.0
2017-Nov-15 13:30N 58°26' E 008°45'0 0.0
2017-Nov-15 13:00N 58°26' E 008°45'0 0.0
2017-Nov-15 12:30N 58°26' E 008°45'0 0.0
2017-Nov-15 12:00N 58°26' E 008°45'0 0.0
2017-Nov-15 11:30N 58°26' E 008°45'0 0.0
2017-Nov-15 11:00N 58°26' E 008°45'0 0.0
2017-Nov-15 10:30N 58°26' E 008°45'0 0.0
2017-Nov-15 10:00N 58°26' E 008°45'0 0.0
2017-Nov-15 09:31N 58°26' E 008°45'0 0.0
2017-Nov-15 09:00N 58°26' E 008°45'0 0.0
2017-Nov-15 08:30N 58°26' E 008°45'0 0.0
2017-Nov-15 08:00N 58°26' E 008°45'0 0.0
2017-Nov-15 07:30N 58°26' E 008°45'0 0.0
2017-Nov-15 07:00N 58°26' E 008°45'0 0.0
2017-Nov-15 06:29N 58°26' E 008°45'0 0.0
2017-Nov-15 06:00N 58°26' E 008°45'0 0.0
2017-Nov-15 05:30N 58°26' E 008°45'0 0.0
2017-Nov-15 05:00N 58°26' E 008°45'0 0.0
2017-Nov-15 04:30N 58°26' E 008°45'0 0.0
2017-Nov-15 04:00N 58°26' E 008°45'0 0.0
2017-Nov-15 03:30N 58°26' E 008°45'0 0.0
2017-Nov-15 03:00N 58°26' E 008°45'0 0.0
2017-Nov-15 02:31N 58°26' E 008°45'0 0.0
2017-Nov-15 02:00N 58°26' E 008°45'0 0.0
2017-Nov-15 01:30N 58°26' E 008°45'0 0.0
2017-Nov-15 01:00N 58°26' E 008°45'0 0.0
2017-Nov-15 00:29N 58°26' E 008°45'0 0.0
2017-Nov-15 00:00N 58°26' E 008°45'0 0.0
2017-Nov-14 23:31N 58°26' E 008°45'0 0.0
2017-Nov-14 22:59N 58°26' E 008°45'0 0.0
2017-Nov-14 22:30N 58°26' E 008°45'0 0.0
2017-Nov-14 22:00N 58°26' E 008°45'0 0.0
2017-Nov-14 21:30N 58°26' E 008°45'0 0.0
2017-Nov-14 21:00N 58°26' E 008°45'0 0.0
2017-Nov-14 20:30N 58°26' E 008°45'0 0.0
2017-Nov-14 20:00N 58°26' E 008°45'0 0.0
2017-Nov-14 19:30N 58°26' E 008°45'0 0.0
2017-Nov-14 19:00N 58°26' E 008°45'0 0.0
2017-Nov-14 18:30N 58°26' E 008°45'0 0.0
2017-Nov-14 18:00N 58°26' E 008°45'0 0.0
2017-Nov-14 17:30N 58°26' E 008°45'0 0.0
2017-Nov-14 17:00N 58°26' E 008°45'0 0.0
2017-Nov-14 16:30N 58°26' E 008°45'0 0.0
2017-Nov-14 16:00N 58°26' E 008°45'0 0.0
2017-Nov-14 15:30N 58°26' E 008°45'0 0.0
2017-Nov-14 15:00N 58°26' E 008°45'0 0.0
2017-Nov-14 14:30N 58°26' E 008°45'0 0.0
2017-Nov-14 13:59N 58°26' E 008°45'0 0.0
2017-Nov-14 13:30N 58°26' E 008°45'0 0.0
2017-Nov-14 13:00N 58°26' E 008°45'0 0.0
2017-Nov-14 12:30N 58°26' E 008°45'0 0.0
2017-Nov-14 12:00N 58°26' E 008°45'0 0.0
2017-Nov-14 11:30N 58°26' E 008°45'0 0.0
2017-Nov-14 11:01N 58°26' E 008°45'0 0.0
2017-Nov-14 10:30N 58°26' E 008°45'0 0.0
2017-Nov-14 10:00N 58°26' E 008°45'0 0.0
2017-Nov-14 09:31N 58°26' E 008°45'0 0.0
2017-Nov-14 09:00N 58°26' E 008°45'0 0.0
2017-Nov-14 08:30N 58°26' E 008°45'0 0.0
2017-Nov-14 08:00N 58°26' E 008°45'0 0.0
2017-Nov-14 07:30N 58°26' E 008°45'0 0.0
2017-Nov-14 07:00N 58°26' E 008°45'0 0.0
2017-Nov-14 06:30N 58°26' E 008°45'0 0.0
2017-Nov-14 06:00N 58°26' E 008°45'0 0.0
2017-Nov-14 05:30N 58°26' E 008°45'0 0.0
2017-Nov-14 05:00N 58°26' E 008°45'0 0.0
2017-Nov-14 04:30N 58°26' E 008°45'0 0.0
2017-Nov-14 04:00N 58°26' E 008°45'0 0.0
2017-Nov-14 03:30N 58°26' E 008°45'0 0.0
2017-Nov-14 03:00N 58°26' E 008°45'0 0.0
2017-Nov-14 02:30N 58°26' E 008°45'0 0.0
2017-Nov-14 02:00N 58°26' E 008°45'0 0.0
2017-Nov-14 01:30N 58°26' E 008°45'0 0.0
2017-Nov-14 01:00N 58°26' E 008°45'0 0.0
2017-Nov-14 00:30N 58°26' E 008°45'0 0.0
2017-Nov-14 00:00N 58°26' E 008°45'0 0.0
2017-Nov-13 23:30N 58°26' E 008°45'0 0.0
2017-Nov-13 23:00N 58°26' E 008°45'0 0.0
2017-Nov-13 22:30N 58°26' E 008°45'0 0.0
2017-Nov-13 22:00N 58°26' E 008°45'0 0.0
2017-Nov-13 02:00N 58°26' E 008°45'0 0.0
2017-Nov-13 01:30N 58°26' E 008°45'0 0.0
2017-Nov-13 01:00N 58°26' E 008°45'0 0.0
2017-Nov-13 00:30N 58°26' E 008°45'0 0.0
2017-Nov-13 00:00N 58°26' E 008°45'0 0.0
2017-Nov-12 23:30N 58°26' E 008°45'0 0.0
2017-Nov-12 23:00N 58°26' E 008°45'0 0.0
2017-Nov-12 22:30N 58°26' E 008°45'0 0.0
2017-Nov-12 22:00N 58°26' E 008°45'0 0.0
2017-Nov-12 21:30N 58°26' E 008°45'0 0.0
2017-Nov-12 21:00N 58°26' E 008°45'0 0.0
2017-Nov-12 20:30N 58°26' E 008°45'0 0.0
2017-Nov-12 20:01N 58°26' E 008°45'0 0.0
2017-Nov-12 19:30N 58°26' E 008°45'0 0.0
2017-Nov-12 19:00N 58°26' E 008°45'0 0.0
2017-Nov-12 18:29N 58°26' E 008°45'0 0.0
2017-Nov-12 18:00N 58°26' E 008°45'0 0.0
2017-Nov-12 17:30N 58°26' E 008°45'0 0.0
2017-Nov-12 17:00N 58°26' E 008°45'0 0.0
2017-Nov-12 16:30N 58°26' E 008°45'0 0.0
2017-Nov-12 16:00N 58°26' E 008°45'0 0.0
2017-Nov-12 15:30N 58°26' E 008°45'0 0.0
2017-Nov-12 15:00N 58°26' E 008°45'0 0.0
2017-Nov-12 14:30N 58°26' E 008°45'0 0.0
2017-Nov-12 14:00N 58°26' E 008°45'0 0.0
2017-Nov-12 13:30N 58°26' E 008°45'0 0.0
2017-Nov-12 13:00N 58°26' E 008°45'0 0.0
2017-Nov-12 12:31N 58°26' E 008°45'0 0.0
2017-Nov-12 12:00N 58°26' E 008°45'0 0.0
2017-Nov-12 11:30N 58°26' E 008°45'0 0.0
2017-Nov-12 11:00N 58°26' E 008°45'0 0.0
2017-Nov-12 10:31N 58°26' E 008°45'0 0.0
2017-Nov-12 09:59N 58°26' E 008°45'0 0.0
2017-Nov-12 09:30N 58°26' E 008°45'0 0.0
2017-Nov-12 09:00N 58°26' E 008°45'0 0.0
2017-Nov-12 08:30N 58°26' E 008°45'0 0.0
2017-Nov-12 07:59N 58°26' E 008°45'0 0.0
2017-Nov-12 07:30N 58°26' E 008°45'0 0.0
2017-Nov-12 07:00N 58°26' E 008°45'0 0.0
2017-Nov-12 06:30N 58°26' E 008°45'0 0.0
2017-Nov-12 06:00N 58°26' E 008°45'0 0.0
2017-Nov-12 05:30N 58°26' E 008°45'0 0.0
2017-Nov-12 05:00N 58°26' E 008°45'0 0.0
2017-Nov-12 04:30N 58°26' E 008°45'0 0.0
2017-Nov-12 04:00N 58°26' E 008°45'0 0.0
2017-Nov-12 03:30N 58°26' E 008°45'0 0.0
2017-Nov-12 03:00N 58°26' E 008°45'0 0.0
2017-Nov-12 02:30N 58°26' E 008°45'0 0.0
2017-Nov-12 02:01N 58°26' E 008°45'0 0.0
2017-Nov-12 01:30N 58°26' E 008°45'0 0.0
2017-Nov-12 01:00N 58°26' E 008°45'0 0.0
2017-Nov-12 00:30N 58°26' E 008°45'0 0.0
2017-Nov-12 00:00N 58°26' E 008°45'0 0.0
2017-Nov-11 23:30N 58°26' E 008°45'0 0.0
2017-Nov-11 23:00N 58°26' E 008°45'0 0.0
2017-Nov-11 22:30N 58°26' E 008°45'0 0.0
2017-Nov-11 22:00N 58°26' E 008°45'0 0.0
2017-Nov-11 21:30N 58°26' E 008°45'0 0.0
2017-Nov-11 21:00N 58°26' E 008°45'0 0.0
2017-Nov-11 20:30N 58°26' E 008°45'0 0.0
2017-Nov-11 20:00N 58°26' E 008°45'0 0.0
2017-Nov-11 19:30N 58°26' E 008°45'0 0.0
2017-Nov-11 19:00N 58°26' E 008°45'0 0.0
2017-Nov-11 18:30N 58°26' E 008°45'0 0.0
2017-Nov-11 18:00N 58°26' E 008°45'0 0.0
2017-Nov-11 17:30N 58°26' E 008°45'0 0.0
2017-Nov-11 17:00N 58°26' E 008°45'0 0.0
2017-Nov-11 16:30N 58°26' E 008°45'0 0.0
2017-Nov-11 16:00N 58°26' E 008°45'0 0.0
2017-Nov-11 15:30N 58°26' E 008°45'0 0.0
2017-Nov-11 15:00N 58°26' E 008°45'0 0.0
2017-Nov-11 14:30N 58°26' E 008°45'0 0.0
2017-Nov-11 14:00N 58°26' E 008°45'0 0.0
2017-Nov-11 13:30N 58°26' E 008°45'0 0.0
2017-Nov-11 13:00N 58°26' E 008°45'0 0.0
2017-Nov-11 12:31N 58°26' E 008°45'0 0.0
2017-Nov-11 12:00N 58°26' E 008°45'0 0.0
2017-Nov-11 11:30N 58°26' E 008°45'0 0.0
2017-Nov-11 10:59N 58°26' E 008°45'0 0.0
2017-Nov-11 10:30N 58°26' E 008°45'0 0.0
2017-Nov-11 10:00N 58°26' E 008°45'0 0.0
2017-Nov-11 09:30N 58°26' E 008°45'0 0.0
2017-Nov-11 09:00N 58°26' E 008°45'0 0.0
2017-Nov-11 08:29N 58°26' E 008°45'0 0.0
2017-Nov-11 08:00N 58°26' E 008°45'0 0.0
2017-Nov-11 07:30N 58°26' E 008°45'0 0.0
2017-Nov-11 07:01N 58°26' E 008°45'0 0.0
2017-Nov-11 06:30N 58°26' E 008°45'0 0.0
2017-Nov-11 06:00N 58°26' E 008°45'0 0.0
2017-Nov-11 05:30N 58°26' E 008°45'0 0.0
2017-Nov-11 05:00N 58°26' E 008°45'0 0.0
2017-Nov-11 04:30N 58°26' E 008°45'0 0.0
2017-Nov-11 04:00N 58°26' E 008°45'0 0.0
2017-Nov-11 03:30N 58°26' E 008°45'0 0.0
2017-Nov-11 03:00N 58°26' E 008°45'0 0.0
2017-Nov-11 02:30N 58°26' E 008°45'0 0.0
2017-Nov-11 02:00N 58°26' E 008°45'0 0.0
2017-Nov-11 01:30N 58°26' E 008°45'0 0.0
2017-Nov-11 01:00N 58°26' E 008°45'0 0.0
2017-Nov-11 00:30N 58°26' E 008°45'0 0.0
2017-Nov-11 00:00N 58°26' E 008°45'0 0.0
2017-Nov-10 23:31N 58°26' E 008°45'0 0.0
2017-Nov-10 23:00N 58°26' E 008°45'0 0.0
2017-Nov-10 22:30N 58°26' E 008°45'0 0.0
2017-Nov-10 22:01N 58°26' E 008°45'0 0.0
2017-Nov-10 21:31N 58°26' E 008°45'0 0.0
2017-Nov-10 21:00N 58°26' E 008°45'0 0.0
2017-Nov-10 20:30N 58°26' E 008°45'0 0.0
2017-Nov-10 20:00N 58°26' E 008°45'0 0.0
2017-Nov-10 19:30N 58°26' E 008°45'0 0.0
2017-Nov-10 19:00N 58°26' E 008°45'0 0.0
2017-Nov-10 18:30N 58°26' E 008°45'0 0.0
2017-Nov-10 18:00N 58°26' E 008°45'0 0.0
2017-Nov-10 17:30N 58°26' E 008°45'0 0.0
2017-Nov-10 17:00N 58°26' E 008°45'0 0.0
2017-Nov-10 16:30N 58°26' E 008°45'0 0.0
2017-Nov-10 16:00N 58°26' E 008°45'0 0.0
2017-Nov-10 15:30N 58°26' E 008°45'0 0.0
2017-Nov-10 15:00N 58°26' E 008°45'0 0.0
2017-Nov-10 14:30N 58°26' E 008°45'0 0.0
2017-Nov-10 14:00N 58°26' E 008°45'0 0.0
2017-Nov-10 13:30N 58°26' E 008°45'0 0.0
2017-Nov-10 13:00N 58°26' E 008°45'0 0.0
2017-Nov-10 12:30N 58°26' E 008°45'0 0.0
2017-Nov-10 12:00N 58°26' E 008°45'0 0.0
2017-Nov-10 11:30N 58°26' E 008°45'0 0.0
2017-Nov-10 11:00N 58°26' E 008°45'0 0.0
2017-Nov-10 10:30N 58°26' E 008°45'0 0.0
2017-Nov-10 10:00N 58°26' E 008°45'0 0.0
2017-Nov-10 09:30N 58°26' E 008°45'0 0.0
2017-Nov-10 09:00N 58°26' E 008°45'0 0.0
2017-Nov-10 08:30N 58°26' E 008°45'0 0.0
2017-Nov-10 08:00N 58°26' E 008°45'0 0.0
2017-Nov-10 07:30N 58°26' E 008°45'0 0.0
2017-Nov-10 07:00N 58°26' E 008°45'0 0.0
2017-Nov-10 06:30N 58°26' E 008°45'0 0.0
2017-Nov-10 06:00N 58°26' E 008°45'0 0.0
2017-Nov-10 05:30N 58°26' E 008°45'0 0.0
2017-Nov-10 05:00N 58°26' E 008°45'0 0.0
2017-Nov-10 04:30N 58°26' E 008°45'0 0.0
2017-Nov-10 04:00N 58°26' E 008°45'0 0.0
2017-Nov-10 03:30N 58°26' E 008°45'0 0.0
2017-Nov-10 03:00N 58°26' E 008°45'0 0.0
2017-Nov-10 02:30N 58°26' E 008°45'0 0.0
2017-Nov-10 01:59N 58°26' E 008°45'0 0.0
2017-Nov-10 01:30N 58°26' E 008°45'0 0.0
2017-Nov-10 01:00N 58°26' E 008°45'  

Dump ship's entire track history